Time;durP1;ratioP1;P1;durP2;ratioP2;P2;SDS_P1;SDS_P2;PMS_P1;PMS_P2;Temp;Humidity;BMP_temperature;BMP_pressure;BME280_temperature;BME280_humidity;BME280_pressure;Samples;Min_cycle;Max_cycle;Signal;HPM_P1;HPM_P2
2022/09/20 00:01:27;;;;;;;6.55;0.95;;;8.70;99.90;;;;;;5078892;28;20048;-81
2022/09/20 00:03:55;;;;;;;1.65;0.70;;;8.70;99.90;;;;;;5080415;28;20067;-82
2022/09/20 00:06:26;;;;;;;3.33;1.23;;;8.80;99.90;;;;;;5116911;27;20051;-82
2022/09/20 00:08:53;;;;;;;4.40;0.95;;;8.70;99.90;;;;;;5083938;28;20068;-82
2022/09/20 00:11:21;;;;;;;5.95;1.15;;;8.70;99.90;;;;;;5079150;28;20040;-81
2022/09/20 00:13:50;;;;;;;4.80;0.70;;;8.70;99.90;;;;;;5074922;28;20493;-81
2022/09/20 00:16:22;;;;;;;11.80;2.40;;;8.70;99.90;;;;;;5079794;28;20398;-81
2022/09/20 00:18:49;;;;;;;7.80;1.13;;;8.60;99.90;;;;;;5078135;28;20105;-82
2022/09/20 00:21:17;;;;;;;7.53;0.80;;;8.60;99.90;;;;;;5082647;28;20055;-81
2022/09/20 00:23:43;;;;;;;9.27;1.10;;;8.70;99.90;;;;;;5079968;28;20099;-81
2022/09/20 00:26:08;;;;;;;11.32;1.63;;;8.60;99.90;;;;;;5082281;28;20055;-81
2022/09/20 00:28:34;;;;;;;7.15;1.25;;;8.60;99.90;;;;;;5075022;28;20113;-85
2022/09/20 00:31:00;;;;;;;6.70;1.30;;;8.60;99.90;;;;;;5079009;28;20056;-82
2022/09/20 00:35:06;;;;;;;7.78;1.50;;;8.60;99.90;;;;;;5077141;28;20183;-81
2022/09/20 00:36:15;;;;;;;2.58;0.75;;;8.60;99.90;;;;;;5082898;28;20047;-81
2022/09/20 00:38:41;;;;;;;5.35;0.90;;;8.60;99.90;;;;;;5081623;28;20040;-81
2022/09/20 00:41:07;;;;;;;3.25;1.00;;;8.60;99.90;;;;;;5078093;28;20051;-82
2022/09/20 00:43:51;;;;;;;8.15;0.82;;;8.60;99.90;;;;;;5075606;28;20044;-82
2022/09/20 00:46:43;;;;;;;5.25;1.00;;;8.60;99.90;;;;;;5078182;28;20157;-82
2022/09/20 00:49:24;;;;;;;7.82;0.80;;;8.60;99.90;;;;;;5077448;28;20054;-82
2022/09/20 00:51:58;;;;;;;4.43;0.90;;;8.60;99.90;;;;;;5081694;28;20043;-82
2022/09/20 00:54:25;;;;;;;7.97;1.58;;;8.50;99.90;;;;;;5072150;28;20050;-81
2022/09/20 00:56:51;;;;;;;4.40;0.90;;;8.50;99.90;;;;;;5083203;28;20101;-82
2022/09/20 00:59:25;;;;;;;2.85;1.00;;;8.50;99.90;;;;;;5079691;28;20430;-81
2022/09/20 01:02:15;;;;;;;5.70;1.42;;;8.40;99.90;;;;;;5074371;28;20048;-82
2022/09/20 01:04:41;;;;;;;1.42;0.70;;;8.40;99.90;;;;;;5073466;28;20143;-82
2022/09/20 01:07:10;;;;;;;8.32;1.00;;;8.40;99.90;;;;;;5081300;28;20043;-82
2022/09/20 01:09:36;;;;;;;3.90;0.80;;;8.30;99.90;;;;;;5078458;28;20147;-81
2022/09/20 01:12:06;;;;;;;4.78;0.90;;;8.30;99.90;;;;;;5080734;28;20044;-84
2022/09/20 01:14:33;;;;;;;11.25;0.90;;;8.30;99.90;;;;;;5078876;28;20049;-82
2022/09/20 01:17:03;;;;;;;9.93;1.08;;;8.30;99.90;;;;;;5077244;28;20044;-81
2022/09/20 01:19:48;;;;;;;7.88;0.93;;;8.20;99.90;;;;;;5079816;28;20052;-82
2022/09/20 01:22:21;;;;;;;4.47;1.25;;;8.30;99.90;;;;;;5077112;28;20047;-81
2022/09/20 01:25:13;;;;;;;6.05;1.15;;;8.30;99.90;;;;;;5078388;28;20032;-82
2022/09/20 01:27:46;;;;;;;6.65;0.82;;;8.20;99.90;;;;;;5108306;28;20754;-86
2022/09/20 01:30:25;;;;;;;4.53;0.95;;;8.20;99.90;;;;;;5077703;28;20047;-82
2022/09/20 01:33:11;;;;;;;3.08;1.17;;;8.20;99.90;;;;;;5073562;28;20050;-81
2022/09/20 01:35:38;;;;;;;5.00;1.08;;;8.20;99.90;;;;;;5082417;28;20052;-82
2022/09/20 01:38:22;;;;;;;4.38;1.10;;;8.10;99.90;;;;;;5075439;28;20182;-81
2022/09/20 01:40:56;;;;;;;2.03;0.70;;;8.20;99.90;;;;;;5072215;28;20044;-82
2022/09/20 01:43:40;;;;;;;3.50;0.95;;;8.20;99.90;;;;;;5076391;28;20072;-81
2022/09/20 01:46:33;;;;;;;5.15;0.68;;;8.20;99.90;;;;;;5083083;28;20040;-82
2022/09/20 01:49:08;;;;;;;;;;;8.20;99.90;;;;;;5088087;28;20093;-82
2022/09/20 01:52:15;;;;;;;6.45;0.95;;;8.20;99.90;;;;;;5084846;28;19989;-81
2022/09/20 01:55:02;;;;;;;5.10;0.82;;;8.30;99.90;;;;;;5080409;28;20119;-83
2022/09/20 01:57:36;;;;;;;3.15;0.95;;;8.30;99.90;;;;;;5084640;28;20053;-82
2022/09/20 02:00:22;;;;;;;7.93;1.25;;;8.20;99.90;;;;;;5082740;28;20051;-81
2022/09/20 02:03:11;;;;;;;4.25;1.00;;;8.30;99.90;;;;;;5078289;28;20170;-83
2022/09/20 02:05:40;;;;;;;6.20;1.98;;;8.30;99.90;;;;;;5090458;28;20132;-82
2022/09/20 02:08:44;;;;;;;7.43;0.85;;;8.30;99.90;;;;;;5081703;28;20071;-82
2022/09/20 02:11:15;;;;;;;3.35;0.70;;;8.30;99.90;;;;;;4989445;28;20432;-82
2022/09/20 02:13:55;;;;;;;7.43;2.88;;;8.30;99.90;;;;;;5023702;28;20176;-81
2022/09/20 02:16:39;;;;;;;4.07;0.90;;;8.30;99.90;;;;;;5048782;28;20048;-82
2022/09/20 02:19:34;;;;;;;7.13;0.73;;;8.30;99.90;;;;;;5078671;28;20075;-81
2022/09/20 02:22:09;;;;;;;4.65;0.70;;;8.20;99.90;;;;;;5058780;28;20063;-81
2022/09/20 02:24:45;;;;;;;4.88;0.80;;;8.20;99.90;;;;;;5076888;28;20508;-81
2022/09/20 02:27:32;;;;;;;4.50;0.77;;;8.20;99.90;;;;;;5078684;28;20421;-81
2022/09/20 02:30:32;;;;;;;2.55;1.02;;;8.20;99.90;;;;;;5082402;28;20088;-81
2022/09/20 02:33:32;;;;;;;3.15;0.77;;;8.20;99.90;;;;;;5079119;28;20055;-81
2022/09/20 02:36:51;;;;;;;5.63;1.23;;;8.20;99.90;;;;;;5081416;28;20040;-81
2022/09/20 02:39:39;;;;;;;6.88;0.82;;;8.20;99.90;;;;;;5008715;28;20050;-81
2022/09/20 02:42:08;;;;;;;3.67;0.98;;;8.10;99.90;;;;;;5077191;28;20055;-81
2022/09/20 02:44:55;;;;;;;4.18;0.80;;;8.10;99.90;;;;;;5084302;28;20051;-82
2022/09/20 02:47:38;;;;;;;2.92;1.67;;;8.10;99.90;;;;;;5075914;28;20052;-82
2022/09/20 02:50:10;;;;;;;1.27;0.65;;;8.10;99.90;;;;;;5082964;28;20093;-84
2022/09/20 02:53:00;;;;;;;7.10;1.23;;;8.10;99.90;;;;;;5080736;28;20102;-81
2022/09/20 02:55:53;;;;;;;5.90;0.90;;;8.10;99.90;;;;;;5081374;28;20520;-83
2022/09/20 02:58:43;;;;;;;7.40;1.40;;;8.10;99.90;;;;;;5079130;28;20063;-82
2022/09/20 03:01:11;;;;;;;3.38;0.85;;;8.10;99.90;;;;;;5083506;28;20056;-85
2022/09/20 03:04:01;;;;;;;4.13;1.00;;;8.10;99.90;;;;;;5080349;28;20058;-81
2022/09/20 03:06:45;;;;;;;8.50;1.30;;;8.20;99.90;;;;;;5078713;28;20493;-83
2022/09/20 03:09:44;;;;;;;5.63;0.80;;;8.30;99.90;;;;;;5078994;28;20048;-82
2022/09/20 03:12:22;;;;;;;2.42;0.93;;;8.40;99.90;;;;;;5082761;28;20047;-81
2022/09/20 03:15:21;;;;;;;6.55;0.95;;;8.40;99.90;;;;;;5082027;28;20129;-82
2022/09/20 03:18:05;;;;;;;3.42;0.68;;;8.60;99.90;;;;;;5076714;28;20040;-82
2022/09/20 03:20:59;;;;;;;7.50;1.42;;;8.60;99.90;;;;;;5084441;28;20070;-81
2022/09/20 03:23:54;;;;;;;7.28;1.25;;;8.70;99.90;;;;;;5077707;28;20067;-84
2022/09/20 03:26:29;;;;;;;4.00;1.25;;;8.80;99.90;;;;;;5079982;28;20044;-82
2022/09/20 03:29:07;;;;;;;11.68;1.67;;;8.90;99.90;;;;;;5079377;28;20546;-82
2022/09/20 03:31:36;;;;;;;3.45;0.90;;;9.00;99.90;;;;;;5088908;28;20054;-82
2022/09/20 03:34:32;;;;;;;5.13;1.13;;;9.00;99.90;;;;;;5089403;28;20130;-82
2022/09/20 03:37:24;;;;;;;6.95;0.98;;;9.00;99.90;;;;;;5075122;28;20059;-82
2022/09/20 03:39:50;;;;;;;4.47;1.17;;;9.10;99.90;;;;;;5071263;28;20074;-81
2022/09/20 03:42:24;;;;;;;5.18;0.77;;;9.10;99.90;;;;;;5083891;28;20048;-81
2022/09/20 03:45:18;;;;;;;5.78;1.33;;;9.10;99.90;;;;;;5085186;28;20529;-81
2022/09/20 03:47:53;;;;;;;2.38;1.77;;;9.20;99.90;;;;;;5080896;28;20046;-82
2022/09/20 03:50:34;;;;;;;3.70;1.02;;;9.20;99.90;;;;;;5080415;28;20122;-81
2022/09/20 03:53:17;;;;;;;5.47;1.30;;;9.30;99.90;;;;;;5078082;28;20177;-81
2022/09/20 03:56:05;;;;;;;6.97;1.50;;;9.30;99.90;;;;;;5075908;28;20450;-81
2022/09/20 03:58:46;;;;;;;6.13;1.08;;;9.30;99.90;;;;;;5075485;28;20504;-84
2022/09/20 04:01:46;;;;;;;5.95;1.10;;;9.40;99.90;;;;;;5077169;28;20075;-82
2022/09/20 04:04:31;;;;;;;4.68;0.75;;;9.40;99.90;;;;;;5081392;28;20071;-82
2022/09/20 04:07:18;;;;;;;3.90;1.08;;;9.50;99.90;;;;;;5078530;28;20046;-84
2022/09/20 04:10:02;;;;;;;5.28;1.13;;;9.50;99.90;;;;;;5077023;28;20257;-82
2022/09/20 04:12:48;;;;;;;9.65;3.13;;;9.60;99.90;;;;;;5079152;28;20047;-82
2022/09/20 04:15:26;;;;;;;3.58;1.48;;;9.60;99.90;;;;;;5079960;28;20097;-84
2022/09/20 04:18:21;;;;;;;3.63;0.93;;;9.60;99.90;;;;;;5077415;28;20055;-82
2022/09/20 04:20:59;;;;;;;2.70;0.98;;;9.70;99.90;;;;;;5078154;28;20119;-86
2022/09/20 04:23:43;;;;;;;4.78;1.00;;;9.70;99.90;;;;;;5077908;28;20032;-86
2022/09/20 04:26:09;;;;;;;6.18;1.00;;;9.70;99.90;;;;;;5078378;28;20044;-84
2022/09/20 04:28:35;;;;;;;7.47;1.05;;;9.80;99.90;;;;;;5072200;28;20048;-84
2022/09/20 04:31:36;;;;;;;3.40;1.23;;;9.80;99.90;;;;;;5074821;28;20479;-83
2022/09/20 04:34:07;;;;;;;3.95;1.23;;;9.80;99.90;;;;;;5066300;28;20172;-84
2022/09/20 04:36:55;;;;;;;6.45;0.90;;;9.80;99.90;;;;;;5079437;28;20411;-83
2022/09/20 04:39:45;;;;;;;1.60;0.60;;;9.90;99.90;;;;;;5084432;28;20055;-83
2022/09/20 04:42:35;;;;;;;4.97;1.10;;;9.90;99.90;;;;;;5077990;28;20083;-82
2022/09/20 04:45:20;;;;;;;4.22;0.70;;;9.90;99.90;;;;;;5079543;28;20456;-83
2022/09/20 04:47:52;;;;;;;3.90;1.00;;;9.90;99.90;;;;;;5082318;28;20252;-86
2022/09/20 04:50:43;;;;;;;4.95;0.82;;;9.90;99.90;;;;;;5075518;28;20367;-83
2022/09/20 04:53:54;;;;;;;3.60;0.82;;;9.90;99.90;;;;;;5068058;28;20049;-83
2022/09/20 04:56:53;;;;;;;6.80;1.00;;;9.90;99.90;;;;;;5058567;28;20403;-83
2022/09/20 04:59:25;;;;;;;1.88;0.60;;;9.90;99.90;;;;;;5065700;28;20098;-88
2022/09/20 05:02:04;;;;;;;3.15;0.60;;;9.90;99.90;;;;;;5074355;28;20040;-83
2022/09/20 05:05:01;;;;;;;4.72;0.60;;;9.90;99.90;;;;;;5109283;27;20052;-86
2022/09/20 05:07:35;;;;;;;7.97;1.33;;;9.90;99.90;;;;;;5077540;28;20591;-83
2022/09/20 05:10:34;;;;;;;6.25;1.02;;;9.90;99.90;;;;;;5078159;28;20062;-85
2022/09/20 05:13:12;;;;;;;8.95;1.10;;;10.00;99.90;;;;;;5068608;28;20478;-83
2022/09/20 05:16:24;;;;;;;4.55;0.80;;;10.00;99.90;;;;;;5085306;28;20051;-82
2022/09/20 05:19:16;;;;;;;9.65;1.55;;;10.00;99.90;;;;;;5063563;28;20057;-81
2022/09/20 05:22:16;;;;;;;8.65;1.27;;;10.00;99.90;;;;;;5080830;28;20059;-82
2022/09/20 05:24:57;;;;;;;8.70;1.20;;;9.90;99.90;;;;;;5089056;28;20060;-82
2022/09/20 05:27:45;;;;;;;3.00;0.85;;;9.90;99.90;;;;;;5091613;28;20445;-81
2022/09/20 05:30:41;;;;;;;4.88;1.38;;;9.90;99.90;;;;;;5088359;28;20048;-82
2022/09/20 05:33:55;;;;;;;7.05;1.10;;;9.80;99.90;;;;;;5084236;28;20064;-82
2022/09/20 05:36:26;;;;;;;11.77;1.48;;;9.80;99.90;;;;;;5011203;28;20061;-82
2022/09/20 05:39:14;;;;;;;7.28;1.33;;;9.80;99.90;;;;;;5113423;28;20100;-82
2022/09/20 05:41:46;;;;;;;4.50;0.90;;;9.90;99.90;;;;;;5086390;28;20044;-81
2022/09/20 05:44:39;;;;;;;3.60;0.82;;;9.90;99.90;;;;;;5080197;28;20036;-81
2022/09/20 05:47:13;;;;;;;;;;;9.90;99.90;;;;;;5088884;28;20052;-81
2022/09/20 05:49:54;;;;;;;8.15;1.00;;;10.00;99.90;;;;;;5081193;28;20366;-82
2022/09/20 05:53:13;;;;;;;8.43;1.05;;;10.00;99.90;;;;;;5061187;28;20044;-81
2022/09/20 05:56:06;;;;;;;4.00;0.90;;;10.00;99.90;;;;;;5026175;28;20112;-82
2022/09/20 05:59:10;;;;;;;3.85;0.80;;;10.00;99.90;;;;;;5085838;28;20555;-81
2022/09/20 06:02:08;;;;;;;6.72;1.15;;;10.10;99.90;;;;;;5050999;28;20437;-81
2022/09/20 06:05:08;;;;;;;4.10;0.90;;;10.20;99.90;;;;;;5056837;28;20060;-82
2022/09/20 06:07:49;;;;;;;5.93;1.20;;;10.20;99.90;;;;;;5036326;28;20087;-81
2022/09/20 06:10:27;;;;;;;3.75;0.57;;;10.30;99.90;;;;;;5122043;28;20402;-82
2022/09/20 06:13:09;;;;;;;3.75;1.33;;;10.30;99.90;;;;;;5084857;28;20457;-82
2022/09/20 06:15:58;;;;;;;5.90;0.77;;;10.40;99.90;;;;;;5073165;28;20074;-82
2022/09/20 06:18:54;;;;;;;5.07;0.65;;;10.40;99.90;;;;;;5077092;28;20041;-81
2022/09/20 06:21:42;;;;;;;7.20;1.23;;;10.40;99.90;;;;;;5112510;28;20130;-83
2022/09/20 06:24:50;;;;;;;5.70;0.85;;;10.50;99.90;;;;;;5069746;28;20055;-83
2022/09/20 06:27:50;;;;;;;9.27;2.03;;;10.60;99.90;;;;;;5088644;28;20041;-82
2022/09/20 06:30:35;;;;;;;6.15;1.08;;;10.80;99.90;;;;;;5091666;28;20055;-82
2022/09/20 06:33:16;;;;;;;2.00;1.45;;;10.80;99.90;;;;;;5092472;28;20054;-82
2022/09/20 06:35:49;;;;;;;10.60;2.17;;;11.00;99.90;;;;;;5090970;28;20043;-83
2022/09/20 06:41:27;;;;;;;11.30;1.88;;;11.10;99.90;;;;;;5094775;28;20083;-81
2022/09/20 06:44:04;;;;;;;4.38;0.82;;;11.20;99.90;;;;;;5089573;28;20052;-84
2022/09/20 06:46:32;;;;;;;4.18;1.17;;;11.30;99.90;;;;;;5071174;28;20063;-87
2022/09/20 06:48:58;;;;;;;5.13;1.20;;;11.50;99.90;;;;;;5105320;28;20041;-83
2022/09/20 06:51:26;;;;;;;2.83;1.17;;;11.60;99.90;;;;;;5074409;28;20499;-82
2022/09/20 06:53:54;;;;;;;2.42;1.10;;;11.70;99.90;;;;;;5073761;28;20155;-82
2022/09/20 06:56:23;;;;;;;6.60;0.95;;;11.70;99.90;;;;;;5074677;28;20044;-82
2022/09/20 06:58:51;;;;;;;9.70;1.00;;;11.80;99.90;;;;;;5084776;28;20044;-83
2022/09/20 07:01:18;;;;;;;4.53;1.27;;;11.80;99.90;;;;;;5094839;28;20457;-83
2022/09/20 07:03:44;;;;;;;6.07;1.00;;;11.90;99.90;;;;;;5087993;28;20135;-82
2022/09/20 07:06:10;;;;;;;5.97;1.20;;;11.90;99.90;;;;;;5073931;28;20080;-84
2022/09/20 07:08:37;;;;;;;7.35;1.40;;;11.90;99.90;;;;;;5073632;28;20044;-82
2022/09/20 07:11:04;;;;;;;3.03;1.00;;;12.00;99.90;;;;;;5105896;28;20079;-83
2022/09/20 07:13:30;;;;;;;5.28;0.95;;;12.40;99.90;;;;;;5086653;28;20389;-82
2022/09/20 07:16:01;;;;;;;2.35;0.70;;;13.10;99.90;;;;;;5093130;28;20043;-83
2022/09/20 07:18:27;;;;;;;5.72;0.95;;;13.80;99.90;;;;;;5090966;28;20045;-81
2022/09/20 07:20:53;;;;;;;5.78;1.10;;;14.50;99.90;;;;;;5091782;28;20044;-84
2022/09/20 07:23:18;;;;;;;2.20;0.80;;;15.00;99.90;;;;;;5089828;28;20141;-86
2022/09/20 07:25:44;;;;;;;2.55;1.00;;;15.50;99.90;;;;;;5110612;28;20119;-81
2022/09/20 07:28:10;;;;;;;5.22;0.93;;;16.10;99.90;;;;;;5076291;28;20474;-84
2022/09/20 07:30:35;;;;;;;4.13;0.85;;;16.70;99.90;;;;;;5073199;28;20474;-83
2022/09/20 07:33:01;;;;;;;8.73;1.15;;;17.00;99.90;;;;;;5083040;28;20134;-83
2022/09/20 07:35:27;;;;;;;6.28;1.33;;;17.30;99.90;;;;;;5089524;28;20052;-82
2022/09/20 07:37:58;;;;;;;3.58;1.20;;;17.60;99.90;;;;;;5072587;28;20090;-83
2022/09/20 07:40:25;;;;;;;7.20;1.02;;;17.80;99.90;;;;;;5076558;28;20048;-83
2022/09/20 07:42:51;;;;;;;4.75;0.63;;;18.00;99.90;;;;;;5053350;28;20562;-83
2022/09/20 07:45:17;;;;;;;3.75;0.70;;;18.20;99.90;;;;;;5071520;28;21374;-83
2022/09/20 07:47:45;;;;;;;7.22;0.60;;;18.30;99.90;;;;;;5084219;28;20402;-82
2022/09/20 07:50:11;;;;;;;3.05;0.77;;;18.20;99.90;;;;;;5091930;28;20044;-82
2022/09/20 07:52:36;;;;;;;3.90;0.75;;;17.70;99.90;;;;;;5054598;28;20117;-84
2022/09/20 07:55:02;;;;;;;3.90;1.00;;;17.40;99.90;;;;;;5081319;28;20263;-82
2022/09/20 07:57:28;;;;;;;7.88;0.88;;;17.50;99.90;;;;;;5089843;28;20097;-82
2022/09/20 07:59:53;;;;;;;3.70;0.98;;;17.70;99.90;;;;;;5093588;28;20087;-82
2022/09/20 08:02:19;;;;;;;5.07;0.70;;;17.40;99.90;;;;;;5092460;28;20051;-82
2022/09/20 08:04:48;;;;;;;3.28;0.70;;;16.70;99.90;;;;;;5092602;28;20040;-82
2022/09/20 08:07:14;;;;;;;6.53;1.17;;;16.20;99.90;;;;;;5088003;28;20052;-84
2022/09/20 08:09:40;;;;;;;3.40;0.60;;;15.90;99.90;;;;;;5093547;28;20048;-82
2022/09/20 08:12:07;;;;;;;6.85;1.10;;;15.70;99.90;;;;;;5092017;28;20051;-82
2022/09/20 08:14:33;;;;;;;7.07;0.75;;;15.50;99.90;;;;;;5092190;28;20047;-82
2022/09/20 08:16:59;;;;;;;2.53;0.65;;;15.30;99.90;;;;;;5085991;28;20048;-84
2022/09/20 08:19:25;;;;;;;3.78;0.80;;;15.20;99.90;;;;;;5084689;28;20069;-82
2022/09/20 08:21:55;;;;;;;4.90;0.90;;;15.10;99.90;;;;;;5083645;28;20083;-83
2022/09/20 08:24:20;;;;;;;3.55;0.65;;;15.00;99.90;;;;;;5088981;28;20040;-85
2022/09/20 08:26:47;;;;;;;3.08;0.82;;;15.10;99.90;;;;;;5086689;28;20058;-83
2022/09/20 08:29:14;;;;;;;3.97;0.63;;;15.30;99.90;;;;;;5073500;28;20483;-83
2022/09/20 08:31:41;;;;;;;7.30;0.98;;;15.40;99.90;;;;;;5105234;28;20040;-83
2022/09/20 08:34:09;;;;;;;4.07;0.80;;;15.40;99.90;;;;;;5078909;28;20059;-82
2022/09/20 08:36:39;;;;;;;5.72;0.82;;;15.40;99.90;;;;;;5091845;28;20475;-83
2022/09/20 08:39:06;;;;;;;5.82;0.88;;;15.60;99.90;;;;;;5090872;28;20054;-83
2022/09/20 08:41:48;;;;;;;5.07;1.15;;;15.80;99.90;;;;;;5091587;28;20044;-82
2022/09/20 08:44:16;;;;;;;3.42;1.27;;;16.20;99.90;;;;;;5090191;28;20065;-83
2022/09/20 08:46:47;;;;;;;3.53;0.77;;;16.40;99.90;;;;;;5092035;28;20048;-83
2022/09/20 08:49:25;;;;;;;2.40;0.50;;;16.40;99.90;;;;;;5078720;28;20097;-83
2022/09/20 08:51:51;;;;;;;4.20;0.70;;;16.30;99.90;;;;;;5091753;28;20395;-83
2022/09/20 08:54:17;;;;;;;7.78;0.77;;;16.10;99.90;;;;;;5084705;28;20498;-83
2022/09/20 08:56:48;;;;;;;4.75;0.80;;;16.00;99.90;;;;;;5087334;28;20127;-83
2022/09/20 08:59:18;;;;;;;6.63;0.70;;;15.80;99.90;;;;;;5088189;28;20052;-83
2022/09/20 09:01:45;;;;;;;4.10;0.80;;;15.70;99.90;;;;;;5092647;28;20055;-82
2022/09/20 09:04:14;;;;;;;5.60;0.93;;;15.70;99.90;;;;;;5090676;28;20486;-84
2022/09/20 09:06:41;;;;;;;1.90;0.90;;;15.80;99.90;;;;;;5072047;28;20045;-83
2022/09/20 09:09:13;;;;;;;4.28;0.63;;;15.90;99.90;;;;;;5071332;28;20044;-82
2022/09/20 09:11:39;;;;;;;;;;;15.90;99.90;;;;;;5081084;28;20127;-82
2022/09/20 09:16:57;;;;;;;5.07;0.73;;;15.70;99.90;;;;;;5077233;28;20041;-83
2022/09/20 09:19:43;;;;;;;2.15;0.50;;;15.50;99.90;;;;;;5083013;28;20036;-82
2022/09/20 09:22:09;;;;;;;2.70;0.60;;;15.50;99.90;;;;;;5080003;28;20075;-82
2022/09/20 09:24:35;;;;;;;2.92;0.65;;;15.70;99.90;;;;;;5081946;28;20512;-82
2022/09/20 09:27:13;;;;;;;3.22;0.90;;;16.40;99.90;;;;;;5076330;28;20556;-84
2022/09/20 09:29:59;;;;;;;8.30;0.82;;;17.30;99.90;;;;;;5082962;28;20791;-82
2022/09/20 09:32:31;;;;;;;5.90;1.23;;;17.90;99.90;;;;;;5074485;28;20040;-84
2022/09/20 09:35:24;;;;;;;6.25;0.60;;;18.50;99.90;;;;;;5074517;28;20049;-82
2022/09/20 09:37:58;;;;;;;3.00;0.70;;;19.20;99.90;;;;;;5065175;28;20052;-84
2022/09/20 09:40:25;;;;;;;6.90;1.02;;;19.60;99.90;;;;;;5076897;28;20040;-83
2022/09/20 09:42:59;;;;;;;1.42;0.90;;;19.80;99.90;;;;;;5069047;28;20076;-82
2022/09/20 09:45:37;;;;;;;7.32;0.75;;;19.80;99.90;;;;;;5068656;28;20071;-84
2022/09/20 09:48:22;;;;;;;2.78;0.70;;;19.20;99.90;;;;;;5089462;28;20079;-83
2022/09/20 09:50:48;;;;;;;6.55;0.77;;;18.40;99.90;;;;;;5081399;28;20044;-83
2022/09/20 09:53:20;;;;;;;3.08;0.57;;;17.80;99.90;;;;;;5068847;28;20084;-82
2022/09/20 09:56:20;;;;;;;5.65;0.70;;;17.30;99.90;;;;;;5078025;28;20044;-83
2022/09/20 09:59:09;;;;;;;12.15;5.38;;;16.90;99.90;;;;;;5075381;28;20060;-82
2022/09/20 10:01:54;;;;;;;3.72;1.38;;;16.50;99.90;;;;;;5069446;28;20056;-83
2022/09/20 10:05:08;;;;;;;7.85;0.68;;;16.20;99.90;;;;;;5113244;28;20101;-82
2022/09/20 10:07:54;;;;;;;8.93;1.17;;;15.90;99.90;;;;;;5042362;28;20056;-82
2022/09/20 10:10:26;;;;;;;2.90;0.50;;;15.80;99.90;;;;;;5078689;28;20032;-82
2022/09/20 10:12:58;;;;;;;5.32;0.80;;;15.70;99.90;;;;;;5079352;28;20049;-82
2022/09/20 10:15:50;;;;;;;4.78;0.80;;;15.70;99.90;;;;;;5074187;28;20063;-86
2022/09/20 10:18:21;;;;;;;;;;;15.80;99.90;;;;;;5079735;28;20036;-82
2022/09/20 10:21:06;;;;;;;6.57;0.80;;;15.90;99.90;;;;;;5081745;28;19968;-83
2022/09/20 10:23:40;;;;;;;4.85;1.67;;;15.90;99.90;;;;;;5083330;28;21024;-83
2022/09/20 10:26:20;;;;;;;3.33;1.10;;;15.90;99.90;;;;;;5079356;28;20502;-82
2022/09/20 10:29:17;;;;;;;6.03;0.70;;;15.80;99.90;;;;;;5083711;28;20097;-81
2022/09/20 10:31:43;;;;;;;5.20;1.35;;;15.70;99.90;;;;;;5073890;28;20615;-83
2022/09/20 10:34:53;;;;;;;5.03;0.90;;;15.50;99.90;;;;;;5080868;28;20040;-82
2022/09/20 10:37:43;;;;;;;8.23;1.08;;;15.40;99.90;;;;;;5042334;28;20040;-81
2022/09/20 10:40:21;;;;;;;5.18;1.10;;;15.20;99.90;;;;;;5082887;28;20047;-82
2022/09/20 10:43:15;;;;;;;3.67;0.47;;;15.10;99.90;;;;;;5091252;28;20048;-82
2022/09/20 10:46:15;;;;;;;5.63;0.90;;;15.10;99.90;;;;;;5094504;28;20044;-81
2022/09/20 10:48:47;;;;;;;4.70;0.60;;;14.90;99.90;;;;;;5071023;28;20138;-81
2022/09/20 10:51:24;;;;;;;6.97;1.00;;;14.80;99.90;;;;;;5095580;28;20090;-81
2022/09/20 10:54:22;;;;;;;5.45;0.63;;;14.60;99.90;;;;;;5092294;28;20067;-82
2022/09/20 10:56:51;;;;;;;3.72;0.50;;;14.40;99.90;;;;;;5067495;28;20096;-81
2022/09/20 10:59:34;;;;;;;4.18;0.50;;;14.40;99.90;;;;;;5094884;28;20494;-81
2022/09/20 11:02:24;;;;;;;4.38;0.85;;;14.40;99.90;;;;;;5095044;28;20055;-81
2022/09/20 11:04:50;;;;;;;5.35;0.80;;;14.40;99.90;;;;;;5095126;28;20093;-82
2022/09/20 11:07:29;;;;;;;2.83;0.57;;;14.40;99.90;;;;;;5092907;28;20385;-81
2022/09/20 11:10:00;;;;;;;4.40;0.95;;;14.40;99.90;;;;;;5093856;28;20155;-82
2022/09/20 11:12:38;;;;;;;4.45;0.63;;;14.40;99.90;;;;;;5093263;28;20052;-81
2022/09/20 11:15:53;;;;;;;4.60;0.70;;;14.60;99.90;;;;;;5094953;28;20054;-81
2022/09/20 11:18:31;;;;;;;3.30;0.90;;;14.60;99.90;;;;;;5074323;28;20052;-81
2022/09/20 11:21:30;;;;;;;7.10;1.25;;;14.60;99.90;;;;;;5093790;28;20486;-82
2022/09/20 11:24:05;;;;;;;1.98;0.70;;;14.70;99.90;;;;;;5122134;27;20478;-81
2022/09/20 11:26:40;;;;;;;1.75;0.57;;;14.80;99.90;;;;;;5094647;28;20051;-81
2022/09/20 11:29:20;;;;;;;4.88;0.80;;;14.90;99.90;;;;;;5091054;28;20047;-81
2022/09/20 11:31:49;;;;;;;5.10;0.60;;;15.10;99.90;;;;;;5093341;28;20097;-81
2022/09/20 11:34:24;;;;;;;4.30;0.47;;;15.20;99.90;;;;;;5093469;28;20127;-81
2022/09/20 11:36:57;;;;;;;2.33;0.60;;;15.40;99.90;;;;;;5094034;28;20471;-81
2022/09/20 11:39:49;;;;;;;6.60;1.17;;;15.50;99.90;;;;;;5092789;28;20051;-83
2022/09/20 11:42:19;;;;;;;3.25;0.80;;;15.60;99.90;;;;;;5093976;28;20082;-81
2022/09/20 11:44:45;;;;;;;2.03;0.40;;;15.70;99.90;;;;;;5093347;28;20047;-81
2022/09/20 11:47:29;;;;;;;3.03;0.40;;;15.80;99.90;;;;;;5093222;28;20040;-81
2022/09/20 11:50:13;;;;;;;3.00;0.90;;;16.10;99.90;;;;;;5091061;28;20086;-83
2022/09/20 11:53:04;;;;;;;2.17;0.57;;;16.40;99.90;;;;;;5052666;28;20053;-81
2022/09/20 11:55:42;;;;;;;6.18;0.90;;;16.60;99.90;;;;;;5048414;28;20056;-81
2022/09/20 11:58:15;;;;;;;2.42;0.60;;;16.50;99.90;;;;;;5053862;28;20049;-82
2022/09/20 12:00:45;;;;;;;4.07;0.63;;;16.40;99.90;;;;;;5103504;28;20131;-81
2022/09/20 12:03:36;;;;;;;4.53;0.85;;;16.30;99.90;;;;;;5086015;28;20059;-81
2022/09/20 12:06:08;;;;;;;2.00;0.50;;;16.30;99.90;;;;;;5093678;28;20376;-82
2022/09/20 12:08:40;;;;;;;4.68;0.82;;;16.30;99.90;;;;;;5093759;28;20277;-82
2022/09/20 12:11:15;;;;;;;2.92;0.50;;;16.30;99.90;;;;;;5093283;28;20052;-82
2022/09/20 12:13:51;;;;;;;3.45;0.50;;;16.30;99.90;;;;;;5091759;28;20052;-81
2022/09/20 12:16:43;;;;;;;9.68;0.98;;;16.30;99.90;;;;;;5092482;28;20070;-81
2022/09/20 12:19:33;;;;;;;2.58;0.93;;;16.30;99.90;;;;;;5093607;28;20051;-82
2022/09/20 12:21:58;;;;;;;3.20;1.40;;;16.40;99.90;;;;;;5093439;28;20138;-81
2022/09/20 12:24:30;;;;;;;4.90;0.60;;;16.50;99.90;;;;;;5088921;28;20132;-82
2022/09/20 12:27:14;;;;;;;3.60;0.80;;;16.50;99.90;;;;;;5092229;28;20073;-82
2022/09/20 12:29:49;;;;;;;4.68;0.60;;;16.70;99.90;;;;;;5093444;28;20044;-81
2022/09/20 12:32:51;;;;;;;4.30;0.90;;;17.00;99.90;;;;;;5091910;28;20449;-81
2022/09/20 12:35:35;;;;;;;;;;;17.20;99.90;;;;;;5010484;28;20140;-81
2022/09/20 12:38:18;;;;;;;7.18;0.88;;;17.30;99.90;;;;;;5087851;28;19927;-81
2022/09/20 12:41:13;;;;;;;4.03;0.60;;;17.40;99.90;;;;;;5092671;28;20056;-81
2022/09/20 12:43:59;;;;;;;3.92;0.77;;;17.30;99.90;;;;;;5090373;28;20048;-81
2022/09/20 12:46:39;;;;;;;5.65;0.73;;;17.40;99.90;;;;;;5093013;28;20048;-81
2022/09/20 12:55:44;;;;;;;3.53;1.30;;;17.80;99.90;;;;;;5087622;28;20171;-80
2022/09/20 12:58:13;;;;;;;2.03;0.55;;;18.10;99.90;;;;;;5092501;28;20306;-81
2022/09/20 13:00:49;;;;;;;5.57;0.85;;;18.20;99.90;;;;;;5092804;28;20054;-82
2022/09/20 13:03:23;;;;;;;3.80;0.80;;;18.40;99.90;;;;;;5091682;28;20056;-81
2022/09/20 13:06:07;;;;;;;4.47;0.75;;;18.40;99.90;;;;;;5089073;28;20464;-81
2022/09/20 13:08:42;;;;;;;3.95;0.65;;;18.50;99.90;;;;;;5092561;28;20056;-82
2022/09/20 13:11:18;;;;;;;5.40;0.88;;;18.60;99.90;;;;;;5088303;28;20044;-82
2022/09/20 13:14:09;;;;;;;4.63;0.80;;;18.50;99.90;;;;;;5078089;28;20055;-81
2022/09/20 13:17:04;;;;;;;4.63;1.30;;;18.10;99.90;;;;;;5073398;28;20048;-81
2022/09/20 13:19:33;;;;;;;4.82;1.10;;;17.80;99.90;;;;;;5062633;28;20071;-82
2022/09/20 13:22:16;;;;;;;7.50;1.48;;;17.50;99.90;;;;;;5072302;28;20427;-82
2022/09/20 13:24:45;;;;;;;3.45;0.68;;;17.30;99.90;;;;;;5071756;28;20048;-82
2022/09/20 13:27:21;;;;;;;2.45;0.50;;;17.00;99.90;;;;;;5072677;28;20041;-81
2022/09/20 13:29:48;;;;;;;2.65;0.57;;;16.80;99.90;;;;;;5072339;28;20055;-81
2022/09/20 13:32:27;;;;;;;1.52;0.70;;;16.70;99.90;;;;;;5071246;28;20045;-82
2022/09/20 13:35:18;;;;;;;5.15;1.27;;;16.70;99.90;;;;;;5072157;28;20045;-81
2022/09/20 13:37:43;;;;;;;4.78;1.02;;;16.70;99.90;;;;;;5069496;28;20049;-82
2022/09/20 13:40:35;;;;;;;6.82;1.00;;;16.70;99.90;;;;;;5104744;27;20052;-82
2022/09/20 13:43:22;;;;;;;2.92;0.75;;;16.90;99.90;;;;;;5075379;28;20048;-82
2022/09/20 13:45:52;;;;;;;5.65;0.98;;;17.00;99.90;;;;;;5075112;28;20048;-81
2022/09/20 13:48:18;;;;;;;2.70;0.60;;;17.20;99.90;;;;;;5092119;28;20063;-81
2022/09/20 13:50:44;;;;;;;4.68;0.68;;;17.40;99.90;;;;;;5095550;28;20052;-82
2022/09/20 13:53:17;;;;;;;2.75;0.57;;;17.70;99.90;;;;;;5078930;28;20048;-82
2022/09/20 13:55:44;;;;;;;2.15;0.70;;;18.00;99.90;;;;;;5075226;28;20403;-81
2022/09/20 13:58:28;;;;;;;4.70;0.95;;;18.10;99.90;;;;;;5084959;28;20048;-81
2022/09/20 14:00:57;;;;;;;6.30;0.68;;;18.00;99.90;;;;;;5092127;28;20413;-81
2022/09/20 14:03:25;;;;;;;3.15;0.55;;;17.70;99.90;;;;;;5096346;28;20044;-82
2022/09/20 14:06:00;;;;;;;4.32;0.63;;;17.40;99.90;;;;;;5076700;28;20048;-83